Time,TemperatureF,DewpointF,PressureIn,WindDirection,WindDirectionDegrees,WindSpeedMPH,WindSpeedGustMPH,Humidity,HourlyPrecipIn,Conditions,Clouds,dailyrainin,SoftwareType,DateUTC
2013-02-06 00:01:00,27.7,22.3,29.56,SE,135,2.0,2.0,80,0.00,,,0.00,meteohub,2013-02-06 05:01:00,
2013-02-06 00:02:00,27.7,22.3,29.57,SE,135,1.0,2.0,80,0.00,,,0.00,meteohub,2013-02-06 05:02:00,
2013-02-06 00:03:00,27.7,22.3,29.57,SE,135,0.0,2.0,80,0.00,,,0.00,meteohub,2013-02-06 05:03:00,
2013-02-06 00:09:00,27.5,22.1,29.57,East,90,2.0,2.0,80,0.00,,,0.00,meteohub,2013-02-06 05:09:00,
2013-02-06 00:14:00,27.5,22.1,29.57,East,90,0.0,2.0,80,0.00,,,0.00,meteohub,2013-02-06 05:14:00,
2013-02-06 00:20:00,27.3,21.9,29.57,East,90,0.0,2.0,80,0.00,,,0.00,meteohub,2013-02-06 05:20:00,
2013-02-06 00:26:00,27.3,21.9,29.57,East,90,0.0,1.0,80,0.00,,,0.00,meteohub,2013-02-06 05:26:00,
2013-02-06 00:32:00,27.3,21.9,29.57,East,90,2.0,2.0,80,0.00,,,0.00,meteohub,2013-02-06 05:32:00,
2013-02-06 00:37:00,27.5,22.1,29.57,East,90,0.0,2.0,80,0.00,,,0.00,meteohub,2013-02-06 05:37:00,
2013-02-06 00:43:00,27.7,22.3,29.57,SE,135,0.0,2.0,80,0.00,,,0.00,meteohub,2013-02-06 05:43:00,
2013-02-06 00:49:00,27.9,22.5,29.57,SE,135,2.0,2.0,80,0.00,,,0.00,meteohub,2013-02-06 05:49:00,
2013-02-06 00:55:00,27.9,22.5,29.56,North,0,1.0,2.0,80,0.00,,,0.00,meteohub,2013-02-06 05:55:00,
2013-02-06 01:01:00,28.0,22.6,29.57,SE,135,1.0,2.0,80,0.00,,,0.00,meteohub,2013-02-06 06:01:00,
2013-02-06 01:08:00,28.2,23.2,29.57,South,180,1.0,2.0,81,0.00,,,0.00,meteohub,2013-02-06 06:08:00,
2013-02-06 01:14:00,28.0,22.6,29.57,South,180,0.0,2.0,80,0.00,,,0.00,meteohub,2013-02-06 06:14:00,
2013-02-06 01:20:00,27.9,22.5,29.57,South,180,1.0,2.0,80,0.00,,,0.00,meteohub,2013-02-06 06:20:00,
2013-02-06 01:26:00,27.9,22.5,29.57,NE,45,1.0,2.0,80,0.00,,,0.00,meteohub,2013-02-06 06:26:00,
2013-02-06 01:32:00,28.8,24.8,29.57,SW,225,2.0,2.0,85,0.00,,,0.00,meteohub,2013-02-06 06:32:00,
2013-02-06 01:37:00,28.6,24.6,29.57,SE,135,1.0,2.0,85,0.00,,,0.00,meteohub,2013-02-06 06:37:00,
2013-02-06 01:43:00,28.6,24.6,29.57,SW,225,2.0,4.0,85,0.00,,,0.00,meteohub,2013-02-06 06:43:00,
2013-02-06 01:49:00,28.4,24.4,29.57,SE,135,2.0,4.0,85,0.00,,,0.00,meteohub,2013-02-06 06:49:00,
2013-02-06 01:55:00,28.4,24.4,29.56,South,180,2.0,3.0,85,0.00,,,0.00,meteohub,2013-02-06 06:55:00,
2013-02-06 02:02:00,28.6,24.6,29.56,NE,45,2.0,4.0,85,0.00,,,0.00,meteohub,2013-02-06 07:02:00,
2013-02-06 02:08:00,28.6,24.6,29.56,ENE,68,2.0,4.0,85,0.00,,,0.00,meteohub,2013-02-06 07:08:00,
2013-02-06 02:14:00,28.8,25.2,29.56,South,180,1.0,4.0,86,0.00,,,0.00,meteohub,2013-02-06 07:14:00,
2013-02-06 02:20:00,28.6,25.0,29.56,SE,135,0.0,3.0,86,0.00,,,0.00,meteohub,2013-02-06 07:20:00,
2013-02-06 02:27:00,28.6,25.0,29.56,South,180,0.0,3.0,86,0.00,,,0.00,meteohub,2013-02-06 07:27:00,
2013-02-06 02:32:00,28.9,25.3,29.56,East,90,2.0,2.0,86,0.00,,,0.00,meteohub,2013-02-06 07:32:00,
2013-02-06 02:37:00,29.3,25.7,29.57,North,0,2.0,4.0,86,0.00,,,0.00,meteohub,2013-02-06 07:37:00,
2013-02-06 02:44:00,29.3,25.7,29.57,East,90,2.0,4.0,86,0.00,,,0.00,meteohub,2013-02-06 07:44:00,
2013-02-06 02:50:00,29.7,26.2,29.57,SW,225,2.0,3.0,87,0.00,,,0.00,meteohub,2013-02-06 07:50:00,
2013-02-06 02:56:00,29.1,25.5,29.57,NE,45,4.0,4.0,86,0.00,,,0.00,meteohub,2013-02-06 07:56:00,
2013-02-06 03:02:00,29.1,25.5,29.57,NE,45,0.0,4.0,86,0.00,,,0.00,meteohub,2013-02-06 08:02:00,
2013-02-06 03:07:00,29.1,25.5,29.57,SE,135,1.0,4.0,86,0.00,,,0.00,meteohub,2013-02-06 08:07:00,
2013-02-06 03:13:00,28.9,25.3,29.57,South,180,1.0,4.0,86,0.00,,,0.00,meteohub,2013-02-06 08:13:00,
2013-02-06 03:19:00,28.8,25.2,29.57,East,90,1.0,3.0,86,0.00,,,0.00,meteohub,2013-02-06 08:19:00,
2013-02-06 03:26:00,28.8,25.2,29.57,East,90,1.0,3.0,86,0.00,,,0.00,meteohub,2013-02-06 08:26:00,
2013-02-06 03:32:00,28.8,25.2,29.57,SE,135,1.0,2.0,86,0.00,,,0.00,meteohub,2013-02-06 08:32:00,
2013-02-06 03:38:00,28.6,25.0,29.57,North,0,2.0,2.0,86,0.00,,,0.00,meteohub,2013-02-06 08:38:00,
2013-02-06 03:44:00,28.8,25.3,29.57,NE,45,2.0,2.0,87,0.00,,,0.00,meteohub,2013-02-06 08:44:00,
2013-02-06 03:50:00,28.8,25.3,29.58,East,90,0.0,2.0,87,0.00,,,0.00,meteohub,2013-02-06 08:50:00,
2013-02-06 03:58:00,28.6,25.0,29.58,North,0,1.0,2.0,86,0.00,,,0.00,meteohub,2013-02-06 08:58:00,
2013-02-06 04:04:00,28.4,24.8,29.58,South,180,2.0,2.0,86,0.00,,,0.00,meteohub,2013-02-06 09:04:00,
2013-02-06 04:11:00,28.4,24.8,29.58,SE,135,0.0,2.0,86,0.00,,,0.00,meteohub,2013-02-06 09:11:00,
2013-02-06 04:17:00,28.6,25.0,29.58,SE,135,2.0,2.0,86,0.00,,,0.00,meteohub,2013-02-06 09:17:00,
2013-02-06 04:23:00,28.6,25.0,29.58,SE,135,2.0,2.0,86,0.00,,,0.00,meteohub,2013-02-06 09:23:00,
2013-02-06 04:29:00,28.2,23.4,29.59,East,90,0.0,2.0,82,0.00,,,0.00,meteohub,2013-02-06 09:29:00,
2013-02-06 04:35:00,28.2,23.4,29.59,NE,45,1.0,2.0,82,0.00,,,0.00,meteohub,2013-02-06 09:35:00,
2013-02-06 04:41:00,28.0,23.2,29.59,SE,135,0.0,2.0,82,0.00,,,0.00,meteohub,2013-02-06 09:41:00,
2013-02-06 04:47:00,27.9,23.0,29.59,SE,135,0.0,2.0,82,0.00,,,0.00,meteohub,2013-02-06 09:47:00,
2013-02-06 04:52:00,27.5,22.8,29.60,SE,135,0.0,0.0,82,0.00,,,0.00,meteohub,2013-02-06 09:52:00,
2013-02-06 04:58:00,27.3,22.6,29.60,NW,315,0.0,0.0,82,0.00,,,0.00,meteohub,2013-02-06 09:58:00,
2013-02-06 05:05:00,27.3,22.6,29.60,NW,315,0.0,1.0,82,0.00,,,0.00,meteohub,2013-02-06 10:05:00,
2013-02-06 05:11:00,27.3,22.6,29.60,NE,45,0.0,1.0,82,0.00,,,0.00,meteohub,2013-02-06 10:11:00,
2013-02-06 05:17:00,27.3,22.6,29.60,SE,135,2.0,3.0,82,0.00,,,0.00,meteohub,2013-02-06 10:17:00,
2013-02-06 05:23:00,27.3,22.6,29.60,North,0,1.0,3.0,82,0.00,,,0.00,meteohub,2013-02-06 10:23:00,
2013-02-06 05:29:00,27.5,22.8,29.60,SE,135,2.0,3.0,82,0.00,,,0.00,meteohub,2013-02-06 10:29:00,
2013-02-06 05:34:00,27.3,22.6,29.61,NW,315,1.0,2.0,82,0.00,,,0.00,meteohub,2013-02-06 10:34:00,
2013-02-06 05:40:00,27.3,22.6,29.61,South,180,2.0,2.0,82,0.00,,,0.00,meteohub,2013-02-06 10:40:00,
2013-02-06 05:46:00,27.0,22.3,29.61,East,90,0.0,2.0,82,0.00,,,0.00,meteohub,2013-02-06 10:46:00,
2013-02-06 05:52:00,27.0,22.3,29.62,South,180,2.0,2.0,82,0.00,,,0.00,meteohub,2013-02-06 10:52:00,
2013-02-06 05:58:00,26.8,22.1,29.62,South,180,2.0,2.0,82,0.00,,,0.00,meteohub,2013-02-06 10:58:00,
2013-02-06 06:05:00,26.6,21.9,29.62,SE,135,0.0,2.0,82,0.00,,,0.00,meteohub,2013-02-06 11:05:00,
2013-02-06 06:11:00,26.6,21.9,29.62,SE,135,2.0,2.0,82,0.00,,,0.00,meteohub,2013-02-06 11:11:00,
2013-02-06 06:17:00,26.6,21.9,29.62,NE,45,0.0,2.0,82,0.00,,,0.00,meteohub,2013-02-06 11:17:00,
2013-02-06 06:22:00,26.6,21.9,29.62,SE,135,2.0,2.0,82,0.00,,,0.00,meteohub,2013-02-06 11:22:00,
2013-02-06 06:28:00,26.2,21.7,29.62,East,90,1.0,2.0,83,0.00,,,0.00,meteohub,2013-02-06 11:28:00,
2013-02-06 06:34:00,26.2,21.6,29.63,SE,135,2.0,2.0,82,0.00,,,0.00,meteohub,2013-02-06 11:34:00,
2013-02-06 06:41:00,26.1,21.4,29.63,SE,135,0.0,2.0,82,0.00,,,0.00,meteohub,2013-02-06 11:41:00,
2013-02-06 06:47:00,26.1,21.4,29.63,SE,135,1.0,2.0,82,0.00,,,0.00,meteohub,2013-02-06 11:47:00,
2013-02-06 06:53:00,25.7,21.0,29.63,NW,315,0.0,2.0,82,0.00,,,0.00,meteohub,2013-02-06 11:53:00,
2013-02-06 06:59:00,25.7,21.0,29.64,NW,315,0.0,2.0,82,0.00,,,0.00,meteohub,2013-02-06 11:59:00,
2013-02-06 07:05:00,25.7,21.0,29.64,NW,315,0.0,3.0,82,0.00,,,0.00,meteohub,2013-02-06 12:05:00,
2013-02-06 07:11:00,25.7,21.0,29.64,South,180,0.0,3.0,82,0.00,,,0.00,meteohub,2013-02-06 12:11:00,
2013-02-06 07:17:00,25.5,20.8,29.65,NW,315,2.0,2.0,82,0.00,,,0.00,meteohub,2013-02-06 12:17:00,
2013-02-06 07:22:00,25.7,21.0,29.65,NW,315,2.0,2.0,82,0.00,,,0.00,meteohub,2013-02-06 12:22:00,
2013-02-06 07:29:00,25.5,20.8,29.65,SE,135,2.0,2.0,82,0.00,,,0.00,meteohub,2013-02-06 12:29:00,
2013-02-06 07:35:00,25.5,20.8,29.65,South,180,0.0,2.0,82,0.00,,,0.00,meteohub,2013-02-06 12:35:00,
2013-02-06 07:41:00,25.3,20.7,29.65,East,90,0.0,2.0,82,0.00,,,0.00,meteohub,2013-02-06 12:41:00,
2013-02-06 07:47:00,25.2,20.5,29.65,SE,135,0.0,2.0,82,0.00,,,0.00,meteohub,2013-02-06 12:47:00,
2013-02-06 07:52:00,25.0,20.3,29.65,South,180,0.0,0.0,82,0.00,,,0.00,meteohub,2013-02-06 12:52:00,
2013-02-06 07:58:00,24.8,20.1,29.65,East,90,0.0,1.0,82,0.00,,,0.00,meteohub,2013-02-06 12:58:00,
2013-02-06 08:04:00,25.0,20.3,29.66,East,90,0.0,1.0,82,0.00,,,0.00,meteohub,2013-02-06 13:04:00,
2013-02-06 08:11:00,25.2,20.5,29.66,South,180,0.0,1.0,82,0.00,,,0.00,meteohub,2013-02-06 13:11:00,
2013-02-06 08:17:00,25.3,20.7,29.66,SE,135,0.0,2.0,82,0.00,,,0.00,meteohub,2013-02-06 13:17:00,
2013-02-06 08:22:00,25.3,20.7,29.66,NE,45,0.0,2.0,82,0.00,,,0.00,meteohub,2013-02-06 13:22:00,
2013-02-06 08:28:00,25.7,21.0,29.66,SE,135,0.0,2.0,82,0.00,,,0.00,meteohub,2013-02-06 13:28:00,
2013-02-06 08:33:00,25.7,21.0,29.66,SW,225,2.0,2.0,82,0.00,,,0.00,meteohub,2013-02-06 13:33:00,
2013-02-06 08:39:00,25.7,21.0,29.66,NE,45,2.0,2.0,82,0.00,,,0.00,meteohub,2013-02-06 13:39:00,
2013-02-06 08:45:00,26.4,21.9,29.66,NE,45,0.0,2.0,83,0.00,,,0.00,meteohub,2013-02-06 13:45:00,
2013-02-06 08:52:00,26.8,22.1,29.66,East,90,1.0,2.0,82,0.00,,,0.00,meteohub,2013-02-06 13:52:00,
2013-02-06 08:58:00,27.5,22.8,29.67,East,90,2.0,2.0,82,0.00,,,0.00,meteohub,2013-02-06 13:58:00,
2013-02-06 09:04:00,27.9,23.0,29.67,NE,45,0.0,2.0,82,0.00,,,0.00,meteohub,2013-02-06 14:04:00,
2013-02-06 09:10:00,28.2,23.7,29.67,East,90,2.0,2.0,83,0.00,,,0.00,meteohub,2013-02-06 14:10:00,
2013-02-06 09:16:00,28.8,25.3,29.67,SE,135,0.0,2.0,87,0.00,,,0.00,meteohub,2013-02-06 14:16:00,
2013-02-06 09:23:00,29.5,26.1,29.67,NE,45,2.0,2.0,87,0.00,,,0.00,meteohub,2013-02-06 14:23:00,
2013-02-06 09:29:00,30.6,27.1,29.67,SE,135,1.0,2.0,87,0.00,,,0.00,meteohub,2013-02-06 14:29:00,
2013-02-06 09:35:00,31.6,28.2,29.67,NE,45,1.0,2.0,87,0.00,,,0.00,meteohub,2013-02-06 14:35:00,
2013-02-06 09:41:00,32.5,29.1,29.67,NE,45,2.0,2.0,87,0.00,,,0.00,meteohub,2013-02-06 14:41:00,
2013-02-06 09:47:00,33.3,29.8,29.67,NE,45,0.0,2.0,87,0.00,,,0.00,meteohub,2013-02-06 14:47:00,
2013-02-06 09:52:00,34.2,30.7,29.67,NE,45,2.0,2.0,87,0.00,,,0.00,meteohub,2013-02-06 14:52:00,
2013-02-06 09:58:00,34.5,30.6,29.67,NW,315,0.0,2.0,85,0.00,,,0.00,meteohub,2013-02-06 14:58:00,
2013-02-06 10:05:00,37.2,31.6,29.68,NE,45,2.0,3.0,80,0.00,,,0.00,meteohub,2013-02-06 15:05:00,
2013-02-06 10:11:00,40.6,30.9,29.67,NE,45,2.0,3.0,68,0.00,,,0.00,meteohub,2013-02-06 15:11:00,
2013-02-06 10:17:00,41.0,27.9,29.68,SW,225,2.0,4.0,59,0.00,,,0.00,meteohub,2013-02-06 15:17:00,
2013-02-06 10:23:00,42.1,27.1,29.68,SW,225,3.0,4.0,55,0.00,,,0.00,meteohub,2013-02-06 15:23:00,
2013-02-06 10:29:00,43.2,23.2,29.68,South,180,5.0,5.0,45,0.00,,,0.00,meteohub,2013-02-06 15:29:00,
2013-02-06 10:35:00,45.7,20.3,29.68,SE,135,5.0,13.0,36,0.00,,,0.00,meteohub,2013-02-06 15:35:00,
2013-02-06 10:41:00,47.8,15.4,29.68,South,180,8.0,13.0,27,0.00,,,0.00,meteohub,2013-02-06 15:41:00,
2013-02-06 10:47:00,49.8,14.5,29.68,South,180,6.0,13.0,24,0.00,,,0.00,meteohub,2013-02-06 15:47:00,
2013-02-06 10:52:00,52.2,12.2,29.69,South,180,8.0,13.0,20,0.00,,,0.00,meteohub,2013-02-06 15:52:00,
2013-02-06 10:59:00,54.9,13.3,29.69,South,180,13.0,13.0,19,0.00,,,0.00,meteohub,2013-02-06 15:59:00,
2013-02-06 11:05:00,52.7,10.4,29.69,South,180,15.0,15.0,18,0.00,,,0.00,meteohub,2013-02-06 16:05:00,
2013-02-06 11:11:00,52.2,8.6,29.69,NE,45,2.0,15.0,17,0.00,,,0.00,meteohub,2013-02-06 16:11:00,
2013-02-06 11:17:00,54.1,11.5,29.69,SW,225,11.0,15.0,18,0.00,,,0.00,meteohub,2013-02-06 16:17:00,
2013-02-06 11:22:00,52.5,10.2,29.69,NE,45,2.0,15.0,18,0.00,,,0.00,meteohub,2013-02-06 16:22:00,
2013-02-06 11:28:00,54.5,9.1,29.69,South,180,13.0,13.0,16,0.00,,,0.00,meteohub,2013-02-06 16:28:00,
2013-02-06 11:35:00,53.2,8.2,29.69,SW,225,16.0,16.0,16,0.00,,,0.00,meteohub,2013-02-06 16:35:00,
2013-02-06 11:41:00,52.0,8.4,29.69,SSW,203,6.0,16.0,17,0.00,,,0.00,meteohub,2013-02-06 16:41:00,
2013-02-06 11:47:00,53.6,7.0,29.69,South,180,10.0,16.0,15,0.00,,,0.00,meteohub,2013-02-06 16:47:00,
2013-02-06 11:52:00,53.8,7.2,29.69,South,180,13.0,15.0,15,0.00,,,0.00,meteohub,2013-02-06 16:52:00,
2013-02-06 11:58:00,53.6,5.5,29.68,SW,225,11.0,15.0,14,0.00,,,0.00,meteohub,2013-02-06 16:58:00,
2013-02-06 12:04:00,52.3,6.1,29.69,SW,225,12.0,15.0,15,0.00,,,0.00,meteohub,2013-02-06 17:04:00,
2013-02-06 12:10:00,53.6,5.5,29.68,South,180,4.0,15.0,14,0.00,,,0.00,meteohub,2013-02-06 17:10:00,
2013-02-06 12:16:00,55.6,10.0,29.68,SW,225,8.0,15.0,16,0.00,,,0.00,meteohub,2013-02-06 17:16:00,
2013-02-06 12:23:00,54.9,6.6,29.68,South,180,4.0,13.0,14,0.00,,,0.00,meteohub,2013-02-06 17:23:00,
2013-02-06 12:29:00,55.9,10.4,29.68,East,90,2.0,13.0,16,0.00,,,0.00,meteohub,2013-02-06 17:29:00,
2013-02-06 12:35:00,54.7,6.4,29.68,SW,225,7.0,12.0,14,0.00,,,0.00,meteohub,2013-02-06 17:35:00,
2013-02-06 12:41:00,55.6,10.0,29.68,South,180,6.0,12.0,16,0.00,,,0.00,meteohub,2013-02-06 17:41:00,
2013-02-06 12:47:00,56.5,12.2,29.68,SW,225,9.0,12.0,17,0.00,,,0.00,meteohub,2013-02-06 17:47:00,
2013-02-06 12:52:00,54.5,7.7,29.68,SE,135,10.0,11.0,15,0.00,,,0.00,meteohub,2013-02-06 17:52:00,
2013-02-06 12:58:00,54.7,9.3,29.68,SSW,203,2.0,11.0,16,0.00,,,0.00,meteohub,2013-02-06 17:58:00,
2013-02-06 13:04:00,55.0,9.7,29.68,South,180,8.0,11.0,16,0.00,,,0.00,meteohub,2013-02-06 18:04:00,
2013-02-06 13:11:00,55.4,13.8,29.68,North,0,8.0,16.0,19,0.00,,,0.00,meteohub,2013-02-06 18:11:00,
2013-02-06 13:17:00,53.4,9.7,29.67,South,180,4.0,16.0,17,0.00,,,0.00,meteohub,2013-02-06 18:17:00,
2013-02-06 13:23:00,55.4,13.8,29.67,South,180,10.0,15.0,19,0.00,,,0.00,meteohub,2013-02-06 18:23:00,
2013-02-06 13:29:00,57.2,12.7,29.67,South,180,5.0,15.0,17,0.00,,,0.00,meteohub,2013-02-06 18:29:00,
2013-02-06 13:35:00,57.7,11.8,29.68,SW,225,15.0,15.0,16,0.00,,,0.00,meteohub,2013-02-06 18:35:00,
2013-02-06 13:41:00,57.6,11.7,29.68,South,180,4.0,17.0,16,0.00,,,0.00,meteohub,2013-02-06 18:41:00,
2013-02-06 13:47:00,58.6,12.6,29.67,North,0,3.0,17.0,16,0.00,,,0.00,meteohub,2013-02-06 18:47:00,
2013-02-06 13:52:00,59.5,10.2,29.67,SW,225,11.0,17.0,14,0.00,,,0.00,meteohub,2013-02-06 18:52:00,
2013-02-06 13:58:00,60.3,12.4,29.67,SW,225,2.0,12.0,15,0.00,,,0.00,meteohub,2013-02-06 18:58:00,
2013-02-06 14:04:00,59.5,11.8,29.67,South,180,11.0,12.0,15,0.00,,,0.00,meteohub,2013-02-06 19:04:00,
2013-02-06 14:10:00,59.5,13.3,29.66,SW,225,8.0,17.0,16,0.00,,,0.00,meteohub,2013-02-06 19:10:00,
2013-02-06 14:17:00,60.1,13.6,29.66,NNW,338,2.0,17.0,16,0.00,,,0.00,meteohub,2013-02-06 19:17:00,
2013-02-06 14:23:00,62.1,13.8,29.66,SW,225,9.0,14.0,15,0.00,,,0.00,meteohub,2013-02-06 19:23:00,
2013-02-06 14:29:00,60.1,13.6,29.66,SW,225,7.0,14.0,16,0.00,,,0.00,meteohub,2013-02-06 19:29:00,
2013-02-06 14:36:00,59.5,14.7,29.66,West,270,4.0,11.0,17,0.00,,,0.00,meteohub,2013-02-06 19:36:00,
2013-02-06 14:42:00,59.7,14.9,29.65,South,180,5.0,11.0,17,0.00,,,0.00,meteohub,2013-02-06 19:42:00,
2013-02-06 14:48:00,60.8,14.4,29.66,North,0,4.0,9.0,16,0.00,,,0.00,meteohub,2013-02-06 19:48:00,
2013-02-06 14:54:00,62.2,16.9,29.66,South,180,4.0,11.0,17,0.00,,,0.00,meteohub,2013-02-06 19:54:00,
2013-02-06 15:00:00,60.3,16.5,29.66,North,0,1.0,13.0,18,0.00,,,0.00,meteohub,2013-02-06 20:00:00,
2013-02-06 15:07:00,62.4,17.1,29.66,South,180,2.0,13.0,17,0.00,,,0.00,meteohub,2013-02-06 20:07:00,
2013-02-06 15:13:00,63.0,14.5,29.66,South,180,10.0,13.0,15,0.00,,,0.00,meteohub,2013-02-06 20:13:00,
2013-02-06 15:19:00,61.9,18.0,29.66,SE,135,5.0,11.0,18,0.00,,,0.00,meteohub,2013-02-06 20:19:00,
2013-02-06 15:25:00,61.7,16.3,29.66,South,180,5.0,11.0,17,0.00,,,0.00,meteohub,2013-02-06 20:25:00,
2013-02-06 15:31:00,61.0,18.5,29.66,SW,225,3.0,11.0,19,0.00,,,0.00,meteohub,2013-02-06 20:31:00,
2013-02-06 15:38:00,60.3,17.8,29.66,South,180,12.0,12.0,19,0.00,,,0.00,meteohub,2013-02-06 20:38:00,
2013-02-06 15:44:00,59.2,16.9,29.66,South,180,4.0,12.0,19,0.00,,,0.00,meteohub,2013-02-06 20:44:00,
2013-02-06 15:50:00,59.7,18.5,29.66,SSW,203,12.0,12.0,20,0.00,,,0.00,meteohub,2013-02-06 20:50:00,
2013-02-06 15:56:00,60.4,19.2,29.67,NW,315,1.0,12.0,20,0.00,,,0.00,meteohub,2013-02-06 20:56:00,
2013-02-06 16:02:00,61.2,17.2,29.67,South,180,9.0,12.0,18,0.00,,,0.00,meteohub,2013-02-06 21:02:00,
2013-02-06 16:07:00,56.7,18.3,29.67,SSW,203,5.0,12.0,22,0.00,,,0.00,meteohub,2013-02-06 21:07:00,
2013-02-06 16:14:00,54.9,13.3,29.67,North,0,2.0,9.0,19,0.00,,,0.00,meteohub,2013-02-06 21:14:00,
2013-02-06 16:20:00,54.7,15.4,29.67,South,180,4.0,9.0,21,0.00,,,0.00,meteohub,2013-02-06 21:20:00,
2013-02-06 16:26:00,55.4,18.1,29.67,South,180,7.0,8.0,23,0.00,,,0.00,meteohub,2013-02-06 21:26:00,
2013-02-06 16:32:00,56.5,19.0,29.67,NE,45,2.0,8.0,23,0.00,,,0.00,meteohub,2013-02-06 21:32:00,
2013-02-06 16:37:00,58.3,18.5,29.68,North,0,2.0,7.0,21,0.00,,,0.00,meteohub,2013-02-06 21:37:00,
2013-02-06 16:43:00,57.7,16.9,29.67,SSW,203,8.0,8.0,20,0.00,,,0.00,meteohub,2013-02-06 21:43:00,
2013-02-06 16:49:00,54.5,13.1,29.67,SW,225,3.0,9.0,19,0.00,,,0.00,meteohub,2013-02-06 21:49:00,
2013-02-06 16:55:00,54.0,14.9,29.66,South,180,8.0,9.0,21,0.00,,,0.00,meteohub,2013-02-06 21:55:00,
2013-02-06 17:02:00,52.5,14.7,29.66,South,180,5.0,8.0,22,0.00,,,0.00,meteohub,2013-02-06 22:02:00,
2013-02-06 17:08:00,52.3,19.4,29.66,South,180,2.0,8.0,27,0.00,,,0.00,meteohub,2013-02-06 22:08:00,
2013-02-06 17:14:00,51.6,18.7,29.66,SW,225,2.0,8.0,27,0.00,,,0.00,meteohub,2013-02-06 22:14:00,
2013-02-06 17:20:00,51.3,21.6,29.66,South,180,2.0,3.0,31,0.00,,,0.00,meteohub,2013-02-06 22:20:00,
2013-02-06 17:27:00,50.2,21.4,29.66,South,180,2.0,3.0,32,0.00,,,0.00,meteohub,2013-02-06 22:27:00,
2013-02-06 17:32:00,49.5,21.6,29.67,South,180,2.0,2.0,33,0.00,,,0.00,meteohub,2013-02-06 22:32:00,
2013-02-06 17:38:00,48.9,21.7,29.68,South,180,1.0,2.0,34,0.00,,,0.00,meteohub,2013-02-06 22:38:00,
2013-02-06 17:44:00,48.9,21.0,29.67,North,0,2.0,3.0,33,0.00,,,0.00,meteohub,2013-02-06 22:44:00,
2013-02-06 17:50:00,48.6,22.8,29.67,South,180,2.0,3.0,36,0.00,,,0.00,meteohub,2013-02-06 22:50:00,
2013-02-06 17:56:00,46.6,25.9,29.68,NE,45,0.0,2.0,44,0.00,,,0.00,meteohub,2013-02-06 22:56:00,
2013-02-06 18:02:00,45.5,25.3,29.68,South,180,0.0,2.0,45,0.00,,,0.00,meteohub,2013-02-06 23:02:00,
2013-02-06 18:07:00,43.9,25.9,29.68,NE,45,0.0,2.0,49,0.00,,,0.00,meteohub,2013-02-06 23:07:00,
2013-02-06 18:13:00,42.6,25.7,29.68,SE,135,0.0,2.0,51,0.00,,,0.00,meteohub,2013-02-06 23:13:00,
2013-02-06 18:19:00,41.2,25.9,29.68,SE,135,1.0,0.0,54,0.00,,,0.00,meteohub,2013-02-06 23:19:00,
2013-02-06 18:25:00,40.5,26.4,29.68,North,0,0.0,2.0,57,0.00,,,0.00,meteohub,2013-02-06 23:25:00,
2013-02-06 18:32:00,39.4,25.9,29.68,South,180,1.0,2.0,58,0.00,,,0.00,meteohub,2013-02-06 23:32:00,
2013-02-06 18:38:00,38.5,26.6,29.68,SW,225,1.0,2.0,62,0.00,,,0.00,meteohub,2013-02-06 23:38:00,
2013-02-06 18:44:00,37.8,25.9,29.68,SW,225,0.0,2.0,62,0.00,,,0.00,meteohub,2013-02-06 23:44:00,
2013-02-06 18:50:00,37.2,25.0,29.68,SE,135,1.0,2.0,61,0.00,,,0.00,meteohub,2013-02-06 23:50:00,
2013-02-06 18:56:00,36.3,24.6,29.68,South,180,1.0,2.0,62,0.00,,,0.00,meteohub,2013-02-06 23:56:00,
2013-02-06 19:02:00,35.8,24.1,29.68,South,180,1.0,2.0,62,0.00,,,0.00,meteohub,2013-02-07 00:02:00,
2013-02-06 19:07:00,35.2,23.9,29.68,South,180,0.0,2.0,63,0.00,,,0.00,meteohub,2013-02-07 00:07:00,
2013-02-06 19:14:00,35.1,24.1,29.68,North,0,0.0,1.0,64,0.00,,,0.00,meteohub,2013-02-07 00:14:00,
2013-02-06 19:20:00,35.1,23.7,29.68,SE,135,0.0,1.0,63,0.00,,,0.00,meteohub,2013-02-07 00:20:00,
2013-02-06 19:26:00,34.9,23.5,29.68,SE,135,0.0,1.0,63,0.00,,,0.00,meteohub,2013-02-07 00:26:00,
2013-02-06 19:32:00,34.2,22.8,29.69,SE,135,0.0,0.0,63,0.00,,,0.00,meteohub,2013-02-07 00:32:00,
2013-02-06 19:38:00,33.4,23.7,29.69,NE,45,0.0,0.0,67,0.00,,,0.00,meteohub,2013-02-07 00:38:00,
2013-02-06 19:44:00,33.3,23.5,29.68,SE,135,0.0,0.0,67,0.00,,,0.00,meteohub,2013-02-07 00:44:00,
2013-02-06 19:50:00,32.9,23.9,29.69,North,0,0.0,1.0,69,0.00,,,0.00,meteohub,2013-02-07 00:50:00,
2013-02-06 19:57:00,32.5,23.5,29.69,SW,225,0.0,1.0,69,0.00,,,0.00,meteohub,2013-02-07 00:57:00,
2013-02-06 20:03:00,32.4,23.7,29.68,SE,135,0.0,1.0,70,0.00,,,0.00,meteohub,2013-02-07 01:03:00,
2013-02-06 20:09:00,32.0,23.4,29.68,NE,45,0.0,0.0,70,0.00,,,0.00,meteohub,2013-02-07 01:09:00,
2013-02-06 20:15:00,31.3,23.0,29.69,NE,45,0.0,0.0,71,0.00,,,0.00,meteohub,2013-02-07 01:15:00,
2013-02-06 20:21:00,31.3,23.4,29.69,NE,45,0.0,0.0,72,0.00,,,0.00,meteohub,2013-02-07 01:21:00,
2013-02-06 20:27:00,31.1,23.2,29.69,North,0,0.0,0.0,72,0.00,,,0.00,meteohub,2013-02-07 01:27:00,
2013-02-06 20:34:00,30.9,23.4,29.69,North,0,0.0,0.0,73,0.00,,,0.00,meteohub,2013-02-07 01:34:00,
2013-02-06 20:40:00,30.7,23.2,29.70,SW,225,2.0,0.0,73,0.00,,,0.00,meteohub,2013-02-07 01:40:00,
2013-02-06 20:46:00,30.4,22.8,29.72,North,0,0.0,2.0,73,0.00,,,0.00,meteohub,2013-02-07 01:46:00,
2013-02-06 20:52:00,29.8,23.2,29.71,North,0,0.0,2.0,76,0.00,,,0.00,meteohub,2013-02-07 01:52:00,
2013-02-06 20:58:00,30.0,23.4,29.71,South,180,0.0,2.0,76,0.00,,,0.00,meteohub,2013-02-07 01:58:00,
2013-02-06 21:05:00,29.8,23.2,29.72,North,0,0.0,3.0,76,0.00,,,0.00,meteohub,2013-02-07 02:05:00,
2013-02-06 21:11:00,29.7,23.7,29.71,SE,135,2.0,3.0,78,0.00,,,0.00,meteohub,2013-02-07 02:11:00,
2013-02-06 21:17:00,29.8,23.9,29.72,SW,225,1.0,2.0,78,0.00,,,0.00,meteohub,2013-02-07 02:17:00,
2013-02-06 21:22:00,29.5,23.5,29.72,SW,225,1.0,2.0,78,0.00,,,0.00,meteohub,2013-02-07 02:22:00,
2013-02-06 21:28:00,29.5,23.2,29.72,South,180,0.0,2.0,77,0.00,,,0.00,meteohub,2013-02-07 02:28:00,
2013-02-06 21:34:00,29.5,23.2,29.73,South,180,2.0,2.0,77,0.00,,,0.00,meteohub,2013-02-07 02:34:00,
2013-02-06 21:41:00,29.5,23.5,29.73,NE,45,1.0,2.0,78,0.00,,,0.00,meteohub,2013-02-07 02:41:00,
2013-02-06 21:47:00,29.3,23.4,29.72,South,180,0.0,2.0,78,0.00,,,0.00,meteohub,2013-02-07 02:47:00,
2013-02-06 21:52:00,29.1,22.8,29.72,NE,45,0.0,2.0,77,0.00,,,0.00,meteohub,2013-02-07 02:52:00,
2013-02-06 21:58:00,28.9,23.0,29.72,North,0,0.0,1.0,78,0.00,,,0.00,meteohub,2013-02-07 02:58:00,
2013-02-06 22:04:00,28.9,23.2,29.71,SE,135,0.0,1.0,79,0.00,,,0.00,meteohub,2013-02-07 03:04:00,
2013-02-06 22:10:00,28.8,22.8,29.71,SE,135,1.0,1.0,78,0.00,,,0.00,meteohub,2013-02-07 03:10:00,
2013-02-06 22:16:00,28.6,22.6,29.71,NW,315,0.0,1.0,78,0.00,,,0.00,meteohub,2013-02-07 03:16:00,
2013-02-06 22:22:00,28.2,21.4,29.71,South,180,0.0,1.0,75,0.00,,,0.00,meteohub,2013-02-07 03:22:00,
2013-02-06 22:29:00,28.2,21.4,29.71,South,180,0.0,1.0,75,0.00,,,0.00,meteohub,2013-02-07 03:29:00,
2013-02-06 22:35:00,28.2,21.6,29.70,North,0,0.0,0.0,76,0.00,,,0.00,meteohub,2013-02-07 03:35:00,
2013-02-06 22:41:00,28.0,21.2,29.70,South,180,0.0,2.0,75,0.00,,,0.00,meteohub,2013-02-07 03:41:00,
2013-02-06 22:47:00,28.0,21.4,29.71,North,0,0.0,2.0,76,0.00,,,0.00,meteohub,2013-02-07 03:47:00,
2013-02-06 22:52:00,28.0,21.4,29.71,South,180,1.0,2.0,76,0.00,,,0.00,meteohub,2013-02-07 03:52:00,
2013-02-06 22:58:00,28.0,21.4,29.71,NE,45,2.0,2.0,76,0.00,,,0.00,meteohub,2013-02-07 03:58:00,
2013-02-06 23:04:00,28.2,21.9,29.71,NE,45,1.0,2.0,77,0.00,,,0.00,meteohub,2013-02-07 04:04:00,
2013-02-06 23:11:00,28.0,21.7,29.71,South,180,1.0,2.0,77,0.00,,,0.00,meteohub,2013-02-07 04:11:00,
2013-02-06 23:17:00,27.9,21.6,29.70,NE,45,0.0,2.0,77,0.00,,,0.00,meteohub,2013-02-07 04:17:00,
2013-02-06 23:23:00,27.7,21.4,29.70,North,0,0.0,2.0,77,0.00,,,0.00,meteohub,2013-02-07 04:23:00,
2013-02-06 23:29:00,27.7,21.4,29.70,North,0,0.0,1.0,77,0.00,,,0.00,meteohub,2013-02-07 04:29:00,
2013-02-06 23:35:00,27.5,21.2,29.70,SW,225,0.0,1.0,77,0.00,,,0.00,meteohub,2013-02-07 04:35:00,
2013-02-06 23:42:00,27.5,21.2,29.70,NE,45,0.0,1.0,77,0.00,,,0.00,meteohub,2013-02-07 04:42:00,
2013-02-06 23:47:00,27.5,21.2,29.70,SE,135,0.0,1.0,77,0.00,,,0.00,meteohub,2013-02-07 04:47:00,
2013-02-06 23:52:00,27.5,21.2,29.70,SE,135,0.0,0.0,77,0.00,,,0.00,meteohub,2013-02-07 04:52:00,
2013-02-06 23:58:00,27.5,21.6,29.70,North,0,0.0,0.0,78,0.00,,,0.00,meteohub,2013-02-07 04:58:00,